RMS weather

Public forecast

Using degrees Celsius for public forecast. Weather courtesy of forecast.io.

Current aviation weather report (METAR) for Ramstein Air Base

Retrieved 2020/08/15 02:56 UTC (1 hour ago):

ETAR 150256Z AUTO 00000KT 9999 BKN120 16/16 A2996 RMK AO2 SLP140 T01640164 57007 FZRANO

Aviation forecast (TAF) for Ramstein Air Base

Retrieved 2020-08-15 02:07 UTC (2 hours ago):

TAF ETAR 150200Z 1502/1608 VRB06KT 8000 BR FEW050 SCT130 QNH2993INS BECMG 1506/1507 25009KT 9999 NSW SCT040 QNH2995INS BECMG 1511/1512 25009KT 9000 -SHRA BKN040 QNH2993INS TX27/1515Z TN16/1504Z